Time;durP1;ratioP1;P1;durP2;ratioP2;P2;SDS_P1;SDS_P2;PMS_P1;PMS_P2;Temp;Humidity;BMP_temperature;BMP_pressure;BME280_temperature;BME280_humidity;BME280_pressure;Samples;Min_cycle;Max_cycle;Signal;HPM_P1;HPM_P2
2023/02/01 00:01:59;;;;;;;2.97;0.65;;;5.10;99.90;;;;;;4412764;32;20077;-62
2023/02/01 00:04:25;;;;;;;2.72;1.85;;;5.10;99.90;;;;;;4424635;32;20080;-62
2023/02/01 00:06:50;;;;;;;2.55;1.75;;;5.10;99.90;;;;;;4410002;32;20578;-61
2023/02/01 00:09:16;;;;;;;3.72;1.20;;;5.10;99.90;;;;;;4425772;32;20057;-60
2023/02/01 00:11:41;;;;;;;4.10;1.95;;;5.10;99.90;;;;;;4425538;32;20073;-60
2023/02/01 00:14:08;;;;;;;0.90;0.90;;;5.10;99.90;;;;;;4425265;32;20094;-62
2023/02/01 00:16:33;;;;;;;0.55;0.55;;;5.10;99.90;;;;;;4424776;32;20868;-61
2023/02/01 00:19:02;;;;;;;0.50;0.50;;;5.10;99.90;;;;;;4413558;32;20422;-61
2023/02/01 00:21:28;;;;;;;0.40;0.40;;;5.10;99.90;;;;;;4421844;32;20132;-61
2023/02/01 00:23:54;;;;;;;1.70;1.40;;;5.10;99.90;;;;;;4408996;32;20061;-61
2023/02/01 00:26:27;;;;;;;0.37;0.37;;;5.10;99.90;;;;;;4423403;32;20062;-62
2023/02/01 00:28:53;;;;;;;0.30;0.30;;;5.10;99.90;;;;;;4410101;32;20132;-62
2023/02/01 00:31:18;;;;;;;0.43;0.43;;;5.10;99.90;;;;;;4407847;32;20074;-60
2023/02/01 00:33:47;;;;;;;4.32;1.27;;;5.10;99.90;;;;;;4424332;32;20085;-62
2023/02/01 00:36:13;;;;;;;1.33;1.05;;;5.20;99.90;;;;;;4396026;32;20070;-65
2023/02/01 00:38:39;;;;;;;0.40;0.40;;;5.10;99.90;;;;;;4425713;32;20049;-60
2023/02/01 00:41:09;;;;;;;2.47;0.85;;;5.10;99.90;;;;;;4410936;32;20066;-62
2023/02/01 00:43:34;;;;;;;0.75;0.75;;;5.10;99.90;;;;;;4409484;32;20438;-63
2023/02/01 00:46:00;;;;;;;3.35;1.15;;;5.10;99.90;;;;;;4424530;32;20073;-62
2023/02/01 00:48:27;;;;;;;3.60;1.52;;;5.00;99.90;;;;;;4409883;32;20485;-63
2023/02/01 00:50:52;;;;;;;1.30;1.20;;;5.00;99.90;;;;;;4410826;32;20116;-63
2023/02/01 00:53:18;;;;;;;0.60;0.60;;;4.90;99.90;;;;;;4424507;32;20084;-61
2023/02/01 00:55:45;;;;;;;1.70;1.50;;;4.90;99.90;;;;;;4425079;32;20480;-62
2023/02/01 00:58:11;;;;;;;1.23;1.15;;;4.90;99.90;;;;;;4424107;32;20074;-61
2023/02/01 01:00:37;;;;;;;3.62;0.75;;;4.90;99.90;;;;;;4423680;32;20400;-62
2023/02/01 01:03:17;;;;;;;0.50;0.50;;;4.80;99.90;;;;;;4410642;32;20077;-61
2023/02/01 01:05:44;;;;;;;1.02;0.68;;;4.80;99.90;;;;;;4412067;32;20054;-61
2023/02/01 01:08:09;;;;;;;0.50;0.45;;;4.80;99.90;;;;;;4425187;32;20096;-61
2023/02/01 01:10:35;;;;;;;1.75;1.25;;;4.70;99.90;;;;;;4424037;32;20435;-62
2023/02/01 01:13:00;;;;;;;0.50;0.50;;;4.70;99.90;;;;;;4425102;32;20145;-61
2023/02/01 01:15:26;;;;;;;0.30;0.30;;;4.70;99.90;;;;;;4422756;32;20140;-62
2023/02/01 01:17:51;;;;;;;5.75;1.75;;;4.70;99.90;;;;;;4424005;32;20089;-62
2023/02/01 01:20:17;;;;;;;0.35;0.35;;;4.70;99.90;;;;;;4424412;32;20451;-62
2023/02/01 01:22:42;;;;;;;0.30;0.30;;;4.70;99.90;;;;;;4423875;32;20143;-62
2023/02/01 01:25:08;;;;;;;0.40;0.40;;;4.70;99.90;;;;;;4424562;32;20073;-61
2023/02/01 01:27:33;;;;;;;0.30;0.30;;;4.70;99.90;;;;;;4425811;32;20116;-62
2023/02/01 01:29:59;;;;;;;4.68;2.08;;;4.70;99.90;;;;;;4409547;32;20397;-61
2023/02/01 01:32:24;;;;;;;0.40;0.40;;;4.70;99.90;;;;;;4423518;32;20417;-62
2023/02/01 01:34:50;;;;;;;2.75;1.35;;;4.70;99.90;;;;;;4424182;32;20132;-61
2023/02/01 01:37:15;;;;;;;0.40;0.40;;;4.70;99.90;;;;;;4423476;32;20090;-59
2023/02/01 01:39:41;;;;;;;1.35;1.25;;;4.80;99.90;;;;;;4423990;32;20082;-62
2023/02/01 01:42:11;;;;;;;0.30;0.30;;;4.90;99.90;;;;;;4424232;32;20576;-63
2023/02/01 01:45:03;;;;;;;0.57;0.57;;;4.90;99.90;;;;;;4424220;32;20120;-61
2023/02/01 01:47:41;;;;;;;0.57;0.57;;;4.90;99.90;;;;;;4412856;32;20120;-62
2023/02/01 01:50:09;;;;;;;0.65;0.65;;;4.90;99.90;;;;;;4411838;32;20081;-61
2023/02/01 01:52:36;;;;;;;0.60;0.60;;;4.90;99.90;;;;;;4410010;32;20061;-61
2023/02/01 01:55:03;;;;;;;0.60;0.60;;;5.00;99.90;;;;;;4423686;32;20077;-62
2023/02/01 01:57:34;;;;;;;40.22;0.98;;;5.00;99.90;;;;;;4410231;32;20081;-61
2023/02/01 02:00:08;;;;;;;3.45;1.58;;;5.00;99.90;;;;;;4408834;32;20094;-61
2023/02/01 02:02:35;;;;;;;0.88;0.82;;;4.90;99.90;;;;;;4409323;32;20128;-61
2023/02/01 02:05:01;;;;;;;0.60;0.60;;;4.90;99.90;;;;;;4422232;32;20069;-62
2023/02/01 02:07:32;;;;;;;0.90;0.88;;;4.90;99.90;;;;;;4408789;32;20520;-62
2023/02/01 02:09:57;;;;;;;;;;;5.00;99.90;;;;;;4408570;32;20468;-61
2023/02/01 02:12:23;;;;;;;10.98;1.62;;;5.20;99.90;;;;;;4423520;32;19995;-62
2023/02/01 02:14:49;;;;;;;0.47;0.47;;;5.20;99.90;;;;;;4425183;32;20089;-62
2023/02/01 02:17:28;;;;;;;0.30;0.30;;;5.10;99.90;;;;;;4423158;32;20053;-62
2023/02/01 02:20:31;;;;;;;2.40;1.75;;;5.10;99.90;;;;;;4423289;32;20085;-61
2023/02/01 02:23:11;;;;;;;0.30;0.30;;;5.10;99.90;;;;;;4409692;32;20121;-61
2023/02/01 02:26:06;;;;;;;0.40;0.40;;;5.00;99.90;;;;;;4425348;32;20114;-62
2023/02/01 02:29:01;;;;;;;0.35;0.35;;;5.00;99.90;;;;;;4411760;32;20089;-61
2023/02/01 02:32:07;;;;;;;0.43;0.43;;;5.00;99.90;;;;;;4413037;32;20156;-62
2023/02/01 02:34:39;;;;;;;11.35;2.37;;;5.00;99.90;;;;;;4412273;32;20069;-61
2023/02/01 02:37:21;;;;;;;7.50;2.40;;;5.00;99.90;;;;;;4423607;32;20095;-60
2023/02/01 02:40:11;;;;;;;0.57;0.57;;;5.00;99.90;;;;;;4424459;32;20422;-61
2023/02/01 02:47:40;;;;;;;1.12;1.02;;;5.00;99.90;;;;;;4405127;32;20478;-61
2023/02/01 02:48:38;;;;;;;1.62;1.27;;;5.00;99.90;;;;;;4406801;32;20088;-62
2023/02/01 02:55:01;;;;;;;2.75;1.27;;;4.90;99.90;;;;;;4404699;32;20169;-59
2023/02/01 03:04:26;;;;;;;0.80;0.45;;;5.00;99.90;;;;;;4406437;32;20474;-62
2023/02/01 03:05:12;;;;;;;1.05;1.00;;;5.00;99.90;;;;;;4396851;32;20093;-59
2023/02/01 03:08:02;;;;;;;0.40;0.40;;;5.00;99.90;;;;;;4428049;32;20078;-62
2023/02/01 03:10:49;;;;;;;0.65;0.65;;;5.10;99.90;;;;;;4421285;32;20151;-61
2023/02/01 03:13:54;;;;;;;1.35;0.77;;;5.10;99.90;;;;;;4428510;32;20077;-62
2023/02/01 03:16:42;;;;;;;1.05;0.95;;;5.00;99.90;;;;;;4409269;32;20073;-63
2023/02/01 03:19:15;;;;;;;1.77;1.67;;;5.10;99.90;;;;;;4416668;32;20490;-63
2023/02/01 03:21:44;;;;;;;6.28;1.92;;;5.10;99.90;;;;;;4426900;32;20086;-62
2023/02/01 03:24:38;;;;;;;0.68;0.68;;;5.10;99.90;;;;;;4409694;32;20128;-62
2023/02/01 03:27:28;;;;;;;1.20;0.77;;;5.10;99.90;;;;;;4402958;32;20093;-62
2023/02/01 03:30:17;;;;;;;0.75;0.55;;;5.10;99.90;;;;;;4428482;32;20128;-64
2023/02/01 03:33:02;;;;;;;1.45;1.35;;;5.10;99.90;;;;;;4414997;32;20500;-63
2023/02/01 03:35:36;;;;;;;0.43;0.43;;;5.10;99.90;;;;;;4413923;32;20081;-61
2023/02/01 03:38:07;;;;;;;1.95;1.42;;;5.10;99.90;;;;;;4414059;32;20077;-62
2023/02/01 03:40:36;;;;;;;1.83;1.08;;;5.10;99.90;;;;;;4428453;32;20533;-63
2023/02/01 03:43:07;;;;;;;0.95;0.95;;;5.10;99.90;;;;;;4413054;32;20065;-64
2023/02/01 03:45:41;;;;;;;0.43;0.43;;;5.20;99.90;;;;;;4428839;32;20430;-63
2023/02/01 03:48:08;;;;;;;0.37;0.37;;;5.10;99.90;;;;;;4414391;32;20077;-61
2023/02/01 03:50:37;;;;;;;0.98;0.98;;;5.10;99.90;;;;;;4429235;32;20470;-62
2023/02/01 03:53:09;;;;;;;1.60;0.77;;;5.10;99.90;;;;;;4428604;32;20086;-62
2023/02/01 03:55:35;;;;;;;2.80;0.80;;;5.10;99.90;;;;;;4428293;32;20097;-62
2023/02/01 03:58:12;;;;;;;0.52;0.52;;;5.10;99.90;;;;;;4428233;32;20090;-62
2023/02/01 04:00:39;;;;;;;1.35;0.57;;;5.10;99.90;;;;;;4412538;32;20111;-63
2023/02/01 04:03:06;;;;;;;0.40;0.40;;;5.10;99.90;;;;;;4414786;32;20121;-61
2023/02/01 04:05:31;;;;;;;0.62;0.62;;;5.10;99.90;;;;;;4413695;32;20104;-62
2023/02/01 04:07:57;;;;;;;0.73;0.73;;;5.20;99.90;;;;;;4413763;32;20418;-62
2023/02/01 04:10:23;;;;;;;0.40;0.40;;;5.20;99.90;;;;;;4415510;32;20088;-62
2023/02/01 04:12:49;;;;;;;0.50;0.50;;;5.20;99.90;;;;;;4428153;32;20524;-61
2023/02/01 04:15:14;;;;;;;2.28;1.35;;;5.20;99.90;;;;;;4427427;32;20409;-61
2023/02/01 04:17:40;;;;;;;0.43;0.43;;;5.20;99.90;;;;;;4424491;32;20537;-61
2023/02/01 04:20:05;;;;;;;0.40;0.40;;;5.20;99.90;;;;;;4427040;32;20062;-61
2023/02/01 04:22:31;;;;;;;0.90;0.85;;;5.30;99.90;;;;;;4425244;32;20461;-61
2023/02/01 04:24:57;;;;;;;0.70;0.70;;;5.30;99.90;;;;;;4410472;32;20426;-61
2023/02/01 04:27:22;;;;;;;40.85;1.30;;;5.30;99.90;;;;;;4425426;32;20085;-60
2023/02/01 04:29:49;;;;;;;0.35;0.35;;;5.30;99.90;;;;;;4410632;32;20073;-61
2023/02/01 04:32:16;;;;;;;0.82;0.82;;;5.30;99.90;;;;;;4410196;32;20057;-61
2023/02/01 04:34:41;;;;;;;1.00;1.00;;;5.30;99.90;;;;;;4410897;32;20061;-61
2023/02/01 04:37:07;;;;;;;0.70;0.70;;;5.40;99.90;;;;;;4411327;32;20082;-61
2023/02/01 04:39:33;;;;;;;5.25;2.20;;;5.40;99.90;;;;;;4411785;32;20671;-61
2023/02/01 04:41:58;;;;;;;1.35;0.75;;;5.40;99.90;;;;;;4424462;32;20076;-61
2023/02/01 04:44:24;;;;;;;0.80;0.80;;;5.40;99.90;;;;;;4425374;32;20539;-61
2023/02/01 04:46:49;;;;;;;3.50;1.40;;;5.40;99.90;;;;;;4424265;32;20093;-61
2023/02/01 04:49:15;;;;;;;1.08;1.08;;;5.40;99.90;;;;;;4423425;32;20057;-61
2023/02/01 04:51:41;;;;;;;0.88;0.88;;;5.50;99.90;;;;;;4424562;32;20078;-62
2023/02/01 04:54:08;;;;;;;0.40;0.40;;;5.50;99.90;;;;;;4410191;32;20073;-61
2023/02/01 04:56:35;;;;;;;1.02;0.95;;;5.50;99.90;;;;;;4410888;32;20070;-61
2023/02/01 04:59:02;;;;;;;0.40;0.40;;;5.50;99.90;;;;;;4411780;32;20546;-62
2023/02/01 05:01:28;;;;;;;0.50;0.50;;;5.50;99.90;;;;;;4423189;32;20567;-61
2023/02/01 05:03:53;;;;;;;0.37;0.37;;;5.50;99.90;;;;;;4423597;32;20479;-62
2023/02/01 05:06:19;;;;;;;3.85;1.20;;;5.50;99.90;;;;;;4425690;32;20113;-61
2023/02/01 05:08:44;;;;;;;0.30;0.30;;;5.60;99.90;;;;;;4425155;32;20108;-61
2023/02/01 05:13:47;;;;;;;0.55;0.55;;;5.60;99.90;;;;;;4422620;32;20470;-61
2023/02/01 05:13:55;;;;;;;2.28;1.75;;;5.60;99.90;;;;;;4412402;32;20061;-61
2023/02/01 05:16:21;;;;;;;0.88;0.88;;;5.50;99.90;;;;;;4425078;32;20065;-61
2023/02/01 05:18:46;;;;;;;0.60;0.60;;;5.60;99.90;;;;;;4424761;32;20552;-61
2023/02/01 05:21:12;;;;;;;2.17;1.15;;;5.60;99.90;;;;;;4424438;32;20113;-61
2023/02/01 05:24:09;;;;;;;1.55;1.17;;;5.60;99.90;;;;;;4423563;32;20132;-61
2023/02/01 05:26:24;;;;;;;2.17;1.12;;;5.60;99.90;;;;;;4411028;32;20066;-62
2023/02/01 05:28:50;;;;;;;1.10;0.82;;;5.60;99.90;;;;;;4408766;32;20068;-61
2023/02/01 05:31:15;;;;;;;0.40;0.40;;;5.60;99.90;;;;;;4410761;32;20116;-61
2023/02/01 05:33:41;;;;;;;0.95;0.93;;;5.60;99.90;;;;;;4412560;32;20202;-61
2023/02/01 05:36:06;;;;;;;2.37;1.48;;;5.60;99.90;;;;;;4425704;32;20189;-61
2023/02/01 05:38:32;;;;;;;3.03;1.02;;;5.50;99.90;;;;;;4424761;32;20450;-61
2023/02/01 05:40:58;;;;;;;6.93;3.15;;;5.50;99.90;;;;;;4409847;32;20101;-61
2023/02/01 05:43:23;;;;;;;0.30;0.30;;;5.60;99.90;;;;;;4423783;32;20864;-61
2023/02/01 05:45:49;;;;;;;0.88;0.88;;;5.50;99.90;;;;;;4411749;32;20081;-62
2023/02/01 05:48:14;;;;;;;0.70;0.70;;;5.50;99.90;;;;;;4424790;32;20510;-61
2023/02/01 05:50:39;;;;;;;0.52;0.52;;;5.50;99.90;;;;;;4424352;32;20418;-62
2023/02/01 05:53:05;;;;;;;1.85;1.52;;;5.50;99.90;;;;;;4423218;32;20069;-61
2023/02/01 05:55:32;;;;;;;6.22;1.20;;;5.50;99.90;;;;;;4424325;32;20098;-62
2023/02/01 05:57:57;;;;;;;0.57;0.57;;;5.50;99.90;;;;;;4409205;32;20097;-62
2023/02/01 06:00:23;;;;;;;0.52;0.52;;;5.50;99.90;;;;;;4424481;32;20176;-62
2023/02/01 06:02:49;;;;;;;2.47;2.00;;;5.50;99.90;;;;;;4411324;32;20099;-63
2023/02/01 06:05:14;;;;;;;0.93;0.93;;;5.40;99.90;;;;;;4424182;32;20589;-62
2023/02/01 06:07:40;;;;;;;0.98;0.77;;;5.40;99.90;;;;;;4424230;32;20085;-61
2023/02/01 06:10:06;;;;;;;0.30;0.30;;;5.40;99.90;;;;;;4424139;32;20109;-61
2023/02/01 06:12:31;;;;;;;1.00;1.00;;;5.40;99.90;;;;;;4409025;32;20212;-61
2023/02/01 06:14:58;;;;;;;1.17;0.75;;;5.40;99.90;;;;;;4425798;32;20073;-62
2023/02/01 06:17:23;;;;;;;1.15;1.05;;;5.40;99.90;;;;;;4421378;32;20853;-60
2023/02/01 06:19:49;;;;;;;0.40;0.40;;;5.40;99.90;;;;;;4424709;32;20144;-60
2023/02/01 06:22:14;;;;;;;1.75;0.55;;;5.40;99.90;;;;;;4423225;32;20539;-60
2023/02/01 06:24:40;;;;;;;0.98;0.98;;;5.40;99.90;;;;;;4422620;32;20116;-60
2023/02/01 06:27:06;;;;;;;2.45;1.65;;;5.40;99.90;;;;;;4421157;32;20070;-61
2023/02/01 06:29:32;;;;;;;0.43;0.43;;;5.40;99.90;;;;;;4423556;32;20085;-61
2023/02/01 06:31:58;;;;;;;1.27;0.80;;;5.40;99.90;;;;;;4424765;32;20130;-62
2023/02/01 06:34:23;;;;;;;13.68;1.50;;;5.40;99.90;;;;;;4409856;32;20483;-62
2023/02/01 06:36:49;;;;;;;0.50;0.50;;;5.40;99.90;;;;;;4423574;32;20117;-62
2023/02/01 06:39:16;;;;;;;0.60;0.60;;;5.30;99.90;;;;;;4422767;32;20199;-62
2023/02/01 06:41:45;;;;;;;10.00;1.50;;;5.30;99.90;;;;;;4422678;32;20073;-62
2023/02/01 06:44:11;;;;;;;5.23;1.90;;;5.30;99.90;;;;;;4410407;32;20435;-62
2023/02/01 06:46:36;;;;;;;4.47;2.15;;;5.30;99.90;;;;;;4422946;32;20527;-63
2023/02/01 06:49:02;;;;;;;3.58;1.80;;;5.30;99.90;;;;;;4424799;32;20553;-62
2023/02/01 06:51:29;;;;;;;0.80;0.80;;;5.30;99.90;;;;;;4409689;32;20065;-61
2023/02/01 06:53:55;;;;;;;0.40;0.40;;;5.30;99.90;;;;;;4409997;32;20152;-62
2023/02/01 06:56:21;;;;;;;0.68;0.68;;;5.30;99.90;;;;;;4409543;32;20509;-61
2023/02/01 06:58:47;;;;;;;1.50;1.40;;;5.30;99.90;;;;;;4410744;32;20078;-62
2023/02/01 07:01:14;;;;;;;0.62;0.62;;;5.30;99.90;;;;;;4409854;32;20777;-61
2023/02/01 07:03:40;;;;;;;0.52;0.52;;;5.40;99.90;;;;;;4410724;32;20098;-61
2023/02/01 07:06:06;;;;;;;0.43;0.43;;;5.40;99.90;;;;;;4409050;32;20062;-61
2023/02/01 07:08:33;;;;;;;1.10;1.10;;;5.40;99.90;;;;;;4408898;32;20065;-61
2023/02/01 07:11:04;;;;;;;9.60;2.42;;;5.40;99.90;;;;;;4424306;32;20732;-62
2023/02/01 07:13:30;;;;;;;0.50;0.50;;;5.40;99.90;;;;;;4410213;32;20077;-62
2023/02/01 07:15:58;;;;;;;0.90;0.77;;;5.40;99.90;;;;;;4424758;32;20135;-62
2023/02/01 07:18:24;;;;;;;1.62;0.70;;;5.40;99.90;;;;;;4423185;32;20143;-61
2023/02/01 07:20:51;;;;;;;3.10;0.45;;;5.40;99.90;;;;;;4424745;32;20065;-62
2023/02/01 07:23:16;;;;;;;4.28;1.25;;;5.30;99.90;;;;;;4397354;32;20094;-63
2023/02/01 07:25:42;;;;;;;0.40;0.40;;;5.30;99.90;;;;;;4423812;32;20181;-64
2023/02/01 07:28:07;;;;;;;0.40;0.40;;;5.30;99.90;;;;;;4422811;32;20097;-62
2023/02/01 07:30:33;;;;;;;0.40;0.40;;;5.30;99.90;;;;;;4409349;32;20644;-62
2023/02/01 07:33:00;;;;;;;7.43;1.10;;;5.30;99.90;;;;;;4423217;32;20176;-62
2023/02/01 07:35:27;;;;;;;4.10;1.60;;;5.30;99.90;;;;;;4424228;32;20143;-63
2023/02/01 07:37:52;;;;;;;0.40;0.40;;;5.30;99.90;;;;;;4422748;32;20120;-65
2023/02/01 07:40:18;;;;;;;0.37;0.37;;;5.30;99.90;;;;;;4421492;32;20066;-62
2023/02/01 07:42:43;;;;;;;1.92;1.67;;;5.30;99.90;;;;;;4423048;32;20061;-62
2023/02/01 07:45:09;;;;;;;0.50;0.50;;;5.20;99.90;;;;;;4423985;32;20485;-61
2023/02/01 07:47:34;;;;;;;1.25;1.02;;;5.20;99.90;;;;;;4410348;32;20090;-62
2023/02/01 07:50:00;;;;;;;1.40;1.30;;;5.10;99.90;;;;;;4424615;32;20066;-63
2023/02/01 07:52:28;;;;;;;0.45;0.45;;;5.00;99.90;;;;;;4425450;32;21271;-62
2023/02/01 07:54:53;;;;;;;9.10;0.93;;;4.90;99.90;;;;;;4423823;32;20097;-61
2023/02/01 07:57:19;;;;;;;10.13;1.65;;;4.80;99.90;;;;;;4426572;32;20070;-62
2023/02/01 08:01:44;;;;;;;0.50;0.50;;;4.80;99.90;;;;;;4425899;32;20108;-62
2023/02/01 08:02:31;;;;;;;0.93;0.93;;;4.70;99.90;;;;;;4412304;32;20540;-62
2023/02/01 08:04:56;;;;;;;0.60;0.60;;;4.70;99.90;;;;;;4425348;32;20156;-62
2023/02/01 08:07:22;;;;;;;0.40;0.40;;;4.60;99.90;;;;;;4425116;32;20667;-61
2023/02/01 08:09:47;;;;;;;3.35;1.87;;;4.60;99.90;;;;;;4424864;32;20061;-62
2023/02/01 08:12:13;;;;;;;0.80;0.80;;;4.60;99.90;;;;;;4425232;32;20148;-62
2023/02/01 08:14:40;;;;;;;4.55;1.42;;;4.60;99.90;;;;;;4424952;32;20508;-62
2023/02/01 08:17:06;;;;;;;0.98;0.80;;;4.50;99.90;;;;;;4423837;32;20195;-62
2023/02/01 08:19:31;;;;;;;2.80;1.12;;;4.50;99.90;;;;;;4412877;32;20053;-61
2023/02/01 08:21:59;;;;;;;0.62;0.50;;;4.50;99.90;;;;;;4423523;32;20120;-63
2023/02/01 08:24:24;;;;;;;2.15;1.05;;;4.40;99.90;;;;;;4422658;32;20069;-61
2023/02/01 08:26:50;;;;;;;0.35;0.35;;;4.40;99.90;;;;;;4425576;32;20097;-60
2023/02/01 08:29:15;;;;;;;0.30;0.30;;;4.30;99.90;;;;;;4410231;32;20136;-60
2023/02/01 08:31:41;;;;;;;0.40;0.40;;;4.40;99.90;;;;;;4425499;32;20061;-61
2023/02/01 08:34:08;;;;;;;0.90;0.88;;;4.40;99.90;;;;;;4424595;32;20545;-60
2023/02/01 08:36:34;;;;;;;0.80;0.70;;;4.40;99.90;;;;;;4412296;32;20136;-60
2023/02/01 08:39:00;;;;;;;1.67;1.30;;;4.40;99.90;;;;;;4411733;32;20104;-61
2023/02/01 08:41:28;;;;;;;22.02;1.80;;;4.40;99.90;;;;;;4410342;32;20257;-59
2023/02/01 08:43:55;;;;;;;0.50;0.50;;;4.40;99.90;;;;;;4410976;32;20073;-62
2023/02/01 08:46:21;;;;;;;0.40;0.40;;;4.40;99.90;;;;;;4410173;32;20423;-62
2023/02/01 08:48:47;;;;;;;0.45;0.45;;;4.60;99.90;;;;;;4424632;32;20613;-60
2023/02/01 08:51:14;;;;;;;0.37;0.37;;;4.50;99.90;;;;;;4412372;32;20070;-62
2023/02/01 08:53:41;;;;;;;0.40;0.40;;;4.50;99.90;;;;;;4410467;32;20122;-61
2023/02/01 08:56:07;;;;;;;1.23;1.02;;;4.50;99.90;;;;;;4424384;32;20631;-62
2023/02/01 08:58:33;;;;;;;0.35;0.35;;;4.60;99.90;;;;;;4410309;32;20154;-63
2023/02/01 09:01:05;;;;;;;0.50;0.50;;;4.50;99.90;;;;;;4425125;32;20125;-62
2023/02/01 09:03:30;;;;;;;0.50;0.50;;;4.40;99.90;;;;;;4410804;32;20331;-59
2023/02/01 09:06:02;;;;;;;0.30;0.30;;;4.40;99.90;;;;;;4412055;32;20151;-62
2023/02/01 09:08:28;;;;;;;0.40;0.40;;;4.40;99.90;;;;;;4410461;32;20069;-59
2023/02/01 09:10:53;;;;;;;0.75;0.55;;;4.40;99.90;;;;;;4423607;32;20090;-60
2023/02/01 09:13:19;;;;;;;0.40;0.40;;;4.40;99.90;;;;;;4423747;32;20093;-61
2023/02/01 09:15:45;;;;;;;0.45;0.45;;;4.40;99.90;;;;;;4425358;32;20065;-62
2023/02/01 09:18:10;;;;;;;5.37;0.90;;;4.40;99.90;;;;;;4425832;32;20069;-63
2023/02/01 09:20:37;;;;;;;3.90;1.12;;;4.40;99.90;;;;;;4425333;32;20152;-62
2023/02/01 09:23:02;;;;;;;0.40;0.40;;;4.40;99.90;;;;;;4424287;32;20121;-62
2023/02/01 09:25:28;;;;;;;0.40;0.40;;;4.40;99.90;;;;;;4423856;32;20069;-62
2023/02/01 09:27:53;;;;;;;0.40;0.40;;;4.40;99.90;;;;;;4424774;32;20073;-62
2023/02/01 09:30:19;;;;;;;0.40;0.40;;;4.40;99.90;;;;;;4423168;32;20435;-61
2023/02/01 09:32:44;;;;;;;0.50;0.50;;;4.40;99.90;;;;;;4418593;32;20065;-62
2023/02/01 09:35:10;;;;;;;0.85;0.85;;;4.40;99.90;;;;;;4423648;32;20422;-63
2023/02/01 09:37:37;;;;;;;0.40;0.40;;;4.40;99.90;;;;;;4425238;32;20061;-62
2023/02/01 09:40:04;;;;;;;0.35;0.35;;;4.50;99.90;;;;;;4423116;32;20109;-62
2023/02/01 09:42:46;;;;;;;2.10;1.00;;;4.50;99.90;;;;;;4425495;32;20643;-63
2023/02/01 09:45:35;;;;;;;0.40;0.40;;;4.50;99.90;;;;;;4422950;32;20089;-61
2023/02/01 09:48:21;;;;;;;0.40;0.40;;;4.50;99.90;;;;;;4411770;32;20065;-62
2023/02/01 09:50:54;;;;;;;0.35;0.35;;;4.60;99.90;;;;;;4409946;32;20073;-62
2023/02/01 09:53:34;;;;;;;0.50;0.50;;;4.60;99.90;;;;;;4409073;32;20065;-62
2023/02/01 09:56:06;;;;;;;0.30;0.30;;;4.60;99.90;;;;;;4423255;32;20094;-62
2023/02/01 09:58:37;;;;;;;0.77;0.77;;;4.60;99.90;;;;;;4410801;32;20062;-62
2023/02/01 10:01:05;;;;;;;0.50;0.50;;;4.60;99.90;;;;;;4424890;32;20061;-63
2023/02/01 10:03:34;;;;;;;0.40;0.40;;;4.60;99.90;;;;;;4408372;32;20105;-61
2023/02/01 10:06:21;;;;;;;0.32;0.32;;;4.60;99.90;;;;;;4410979;32;20081;-62
2023/02/01 10:09:09;;;;;;;0.50;0.50;;;4.60;99.90;;;;;;4411281;32;20097;-63
2023/02/01 10:11:55;;;;;;;0.30;0.30;;;4.60;99.90;;;;;;4411719;32;20096;-63
2023/02/01 10:14:45;;;;;;;0.40;0.40;;;4.60;99.90;;;;;;4422781;32;20124;-63
2023/02/01 10:17:36;;;;;;;0.40;0.40;;;4.60;99.90;;;;;;4410885;32;20532;-62
2023/02/01 10:20:09;;;;;;;0.40;0.40;;;4.60;99.90;;;;;;4413074;32;20081;-62
2023/02/01 10:22:42;;;;;;;0.40;0.40;;;4.60;99.90;;;;;;4422310;32;21182;-62
2023/02/01 10:25:17;;;;;;;0.68;0.68;;;4.60;99.90;;;;;;4425497;32;20105;-62
2023/02/01 10:27:43;;;;;;;0.60;0.60;;;4.60;99.90;;;;;;4396630;32;20127;-61
2023/02/01 10:30:20;;;;;;;0.40;0.40;;;4.60;99.90;;;;;;4424130;32;20144;-60
2023/02/01 10:32:47;;;;;;;0.62;0.62;;;4.60;99.90;;;;;;4416654;32;20132;-60
2023/02/01 10:35:16;;;;;;;0.40;0.40;;;4.70;99.90;;;;;;4410243;32;20065;-61
2023/02/01 10:37:43;;;;;;;0.57;0.40;;;4.80;99.90;;;;;;4423626;32;20057;-59
2023/02/01 10:40:16;;;;;;;2.83;1.67;;;4.80;99.90;;;;;;4410164;32;20152;-60
2023/02/01 10:42:44;;;;;;;1.40;1.30;;;4.90;99.90;;;;;;4425664;32;20077;-61
2023/02/01 10:45:15;;;;;;;0.40;0.40;;;4.70;99.90;;;;;;4409965;32;20102;-59
2023/02/01 10:47:41;;;;;;;0.68;0.68;;;4.60;99.90;;;;;;4410403;32;20057;-61
2023/02/01 10:50:16;;;;;;;0.40;0.40;;;4.60;99.90;;;;;;4425334;32;20057;-61
2023/02/01 10:52:48;;;;;;;0.40;0.40;;;4.70;99.90;;;;;;4424595;32;20066;-61
2023/02/01 10:55:37;;;;;;;6.12;1.58;;;4.80;99.90;;;;;;4424033;32;20065;-60
2023/02/01 10:58:06;;;;;;;0.93;0.50;;;4.80;99.90;;;;;;4411187;32;20080;-61
2023/02/01 11:00:47;;;;;;;0.40;0.40;;;4.80;99.90;;;;;;4409667;32;20104;-60
2023/02/01 11:03:22;;;;;;;0.40;0.40;;;4.80;99.90;;;;;;4397489;32;20077;-61
2023/02/01 11:05:49;;;;;;;0.43;0.43;;;4.90;99.90;;;;;;4410377;32;20068;-59
2023/02/01 11:08:18;;;;;;;0.30;0.30;;;5.10;99.90;;;;;;4422474;32;20122;-60
2023/02/01 11:10:43;;;;;;;0.40;0.40;;;5.10;99.90;;;;;;4409845;32;20065;-60
2023/02/01 11:13:16;;;;;;;0.40;0.40;;;5.20;99.90;;;;;;4423381;32;20128;-61
2023/02/01 11:15:46;;;;;;;0.50;0.50;;;5.20;99.90;;;;;;4410072;32;20120;-60
2023/02/01 11:18:18;;;;;;;0.93;0.88;;;5.30;99.90;;;;;;4403903;32;20127;-61
2023/02/01 11:20:49;;;;;;;0.50;0.50;;;5.30;99.90;;;;;;4409015;32;20081;-61
2023/02/01 11:23:18;;;;;;;1.95;0.65;;;5.40;99.90;;;;;;4423852;32;20069;-60
2023/02/01 11:25:53;;;;;;;0.40;0.40;;;5.40;99.90;;;;;;4409181;32;20097;-61
2023/02/01 11:28:23;;;;;;;0.40;0.40;;;5.50;99.90;;;;;;4411350;32;20081;-60
2023/02/01 11:30:51;;;;;;;0.77;0.77;;;5.60;99.90;;;;;;4425206;32;20464;-59
2023/02/01 11:33:20;;;;;;;0.40;0.40;;;5.70;99.90;;;;;;4412740;32;20101;-61
2023/02/01 11:35:48;;;;;;;0.40;0.40;;;5.90;99.90;;;;;;4412798;32;20555;-61
2023/02/01 11:38:29;;;;;;;0.43;0.43;;;6.00;99.90;;;;;;4422933;32;20450;-60
2023/02/01 11:41:10;;;;;;;0.45;0.45;;;6.10;99.90;;;;;;4413097;32;20057;-61
2023/02/01 11:43:35;;;;;;;0.30;0.30;;;6.10;99.90;;;;;;4425490;32;82985;-61
2023/02/01 11:46:03;;;;;;;0.62;0.62;;;6.20;99.90;;;;;;4423240;32;20106;-61
2023/02/01 11:48:31;;;;;;;0.40;0.40;;;6.20;99.90;;;;;;4412368;32;20112;-60
2023/02/01 11:51:06;;;;;;;0.40;0.40;;;6.30;99.90;;;;;;4411784;32;20208;-60
2023/02/01 11:54:00;;;;;;;0.30;0.30;;;6.30;99.90;;;;;;4426896;32;20066;-61
2023/02/01 11:57:05;;;;;;;0.52;0.52;;;6.30;99.90;;;;;;4414202;32;20517;-61
2023/02/01 12:00:03;;;;;;;0.40;0.40;;;6.30;99.90;;;;;;4414136;32;20064;-60
2023/02/01 12:02:50;;;;;;;0.68;0.37;;;6.20;99.90;;;;;;4413547;32;20491;-61
2023/02/01 12:05:34;;;;;;;0.95;0.93;;;6.20;99.90;;;;;;4413233;32;20061;-61
2023/02/01 12:08:21;;;;;;;0.40;0.40;;;6.30;99.90;;;;;;4424325;32;20062;-61
2023/02/01 12:10:54;;;;;;;0.35;0.35;;;6.40;99.90;;;;;;4413470;32;20060;-60
2023/02/01 12:13:38;;;;;;;2.37;1.08;;;6.50;99.90;;;;;;4425818;32;20077;-61
2023/02/01 12:16:35;;;;;;;0.30;0.30;;;6.70;99.90;;;;;;4426307;32;20069;-62
2023/02/01 12:19:11;;;;;;;1.55;1.10;;;6.70;99.90;;;;;;4411226;32;20062;-61
2023/02/01 12:22:03;;;;;;;1.85;0.70;;;6.70;99.90;;;;;;4424452;32;20057;-59
2023/02/01 12:24:46;;;;;;;0.40;0.40;;;6.70;99.90;;;;;;4412455;32;20072;-61
2023/02/01 12:27:41;;;;;;;0.50;0.50;;;6.70;99.90;;;;;;4425723;32;20057;-61
2023/02/01 12:30:11;;;;;;;0.30;0.30;;;6.90;99.90;;;;;;4424216;32;20070;-60
2023/02/01 12:33:06;;;;;;;0.50;0.50;;;6.90;99.90;;;;;;4423755;32;20106;-60
2023/02/01 12:35:58;;;;;;;0.40;0.40;;;6.90;99.90;;;;;;4412048;32;20106;-60
2023/02/01 12:38:42;;;;;;;0.73;0.73;;;6.90;99.90;;;;;;4410068;32;20073;-61
2023/02/01 12:41:31;;;;;;;0.57;0.57;;;6.70;99.90;;;;;;4412360;32;20065;-62
2023/02/01 12:44:09;;;;;;;0.40;0.40;;;6.70;99.90;;;;;;4425782;32;20111;-61
2023/02/01 12:46:44;;;;;;;0.30;0.30;;;6.70;99.90;;;;;;4423937;32;20114;-61
2023/02/01 12:49:19;;;;;;;0.40;0.40;;;6.70;99.90;;;;;;4421831;32;20090;-61
2023/02/01 12:51:49;;;;;;;2.05;1.02;;;6.70;99.90;;;;;;4424926;32;20540;-61
2023/02/01 12:54:32;;;;;;;0.35;0.35;;;6.60;99.90;;;;;;4411866;32;20136;-60
2023/02/01 12:57:05;;;;;;;0.45;0.45;;;6.60;99.90;;;;;;4424998;32;20109;-60
2023/02/01 12:59:37;;;;;;;0.50;0.50;;;6.60;99.90;;;;;;4411431;32;20065;-60
2023/02/01 13:02:36;;;;;;;0.30;0.30;;;6.70;99.90;;;;;;4410531;32;20061;-61
2023/02/01 13:05:20;;;;;;;0.40;0.40;;;6.60;99.90;;;;;;4404913;32;20065;-61
2023/02/01 13:07:56;;;;;;;2.92;1.08;;;6.50;99.90;;;;;;4408743;32;20156;-61
2023/02/01 13:10:38;;;;;;;0.82;0.80;;;6.50;99.90;;;;;;4409463;32;20076;-60
2023/02/01 13:13:24;;;;;;;3.12;1.08;;;6.50;99.90;;;;;;4425605;32;20077;-63
2023/02/01 13:15:55;;;;;;;0.40;0.40;;;6.60;99.90;;;;;;4424411;32;20065;-60
2023/02/01 13:18:23;;;;;;;0.50;0.50;;;6.60;99.90;;;;;;4422728;32;20093;-62
2023/02/01 13:20:55;;;;;;;4.15;1.65;;;6.60;99.90;;;;;;4424853;32;20091;-62
2023/02/01 13:23:33;;;;;;;5.57;1.02;;;6.70;99.90;;;;;;4410626;32;20086;-60
2023/02/01 13:25:58;;;;;;;0.45;0.45;;;6.60;99.90;;;;;;4423542;32;20056;-60
2023/02/01 13:28:42;;;;;;;0.30;0.30;;;6.60;99.90;;;;;;4426090;32;20537;-61
2023/02/01 13:31:39;;;;;;;0.60;0.60;;;6.60;99.90;;;;;;4425605;32;20066;-60